sensor_id;sensor_type;location;lat;lon;timestamp;pressure;altitude;pressure_sealevel;temperature;humidity
76940;BME280;65885;55.848;35.916;2023-02-23T00:01:36;99441.47;;;-13.40;55.60
76940;BME280;65885;55.848;35.916;2023-02-23T00:04:04;99437.06;;;-13.44;55.14
76940;BME280;65885;55.848;35.916;2023-02-23T00:06:33;99449.88;;;-13.56;55.36
76940;BME280;65885;55.848;35.916;2023-02-23T00:09:02;99449.06;;;-13.71;55.24
76940;BME280;65885;55.848;35.916;2023-02-23T00:11:38;99446.41;;;-13.89;55.61
76940;BME280;65885;55.848;35.916;2023-02-23T00:14:06;99451.41;;;-14.05;56.04
76940;BME280;65885;55.848;35.916;2023-02-23T00:16:34;99453.06;;;-14.20;55.69
76940;BME280;65885;55.848;35.916;2023-02-23T00:19:02;99453.75;;;-14.38;55.87
76940;BME280;65885;55.848;35.916;2023-02-23T00:21:33;99457.28;;;-14.50;56.15
76940;BME280;65885;55.848;35.916;2023-02-23T00:24:02;99453.44;;;-14.59;56.58
76940;BME280;65885;55.848;35.916;2023-02-23T00:26:31;99453.44;;;-14.59;56.61
76940;BME280;65885;55.848;35.916;2023-02-23T00:29:02;99459.53;;;-14.55;56.43
76940;BME280;65885;55.848;35.916;2023-02-23T00:31:30;99465.69;;;-14.50;56.78
76940;BME280;65885;55.848;35.916;2023-02-23T00:34:00;99458.44;;;-14.44;56.54
76940;BME280;65885;55.848;35.916;2023-02-23T00:36:30;99460.34;;;-14.40;56.48
76940;BME280;65885;55.848;35.916;2023-02-23T00:39:00;99456.47;;;-14.35;56.45
76940;BME280;65885;55.848;35.916;2023-02-23T00:41:30;99451.66;;;-14.30;56.27
76940;BME280;65885;55.848;35.916;2023-02-23T00:43:59;99459.50;;;-14.25;56.40
76940;BME280;65885;55.848;35.916;2023-02-23T00:46:28;99463.91;;;-14.21;56.40
76940;BME280;65885;55.848;35.916;2023-02-23T00:48:57;99469.28;;;-14.15;56.39
76940;BME280;65885;55.848;35.916;2023-02-23T00:51:27;99463.38;;;-14.16;56.52
76940;BME280;65885;55.848;35.916;2023-02-23T00:53:56;99463.91;;;-14.21;56.78
76940;BME280;65885;55.848;35.916;2023-02-23T00:56:24;99463.47;;;-14.29;57.01
76940;BME280;65885;55.848;35.916;2023-02-23T00:58:52;99469.66;;;-14.39;56.99
76940;BME280;65885;55.848;35.916;2023-02-23T01:01:21;99462.41;;;-14.49;56.85
76940;BME280;65885;55.848;35.916;2023-02-23T01:03:50;99464.41;;;-14.58;57.12
76940;BME280;65885;55.848;35.916;2023-02-23T01:06:19;99478.16;;;-14.66;57.55
76940;BME280;65885;55.848;35.916;2023-02-23T01:08:47;99471.13;;;-14.72;57.49
76940;BME280;65885;55.848;35.916;2023-02-23T01:11:18;99472.16;;;-14.68;58.29
76940;BME280;65885;55.848;35.916;2023-02-23T01:13:50;99473.56;;;-14.59;58.31
76940;BME280;65885;55.848;35.916;2023-02-23T01:16:19;99475.94;;;-14.47;58.12
76940;BME280;65885;55.848;35.916;2023-02-23T01:18:47;99480.00;;;-14.34;57.65
76940;BME280;65885;55.848;35.916;2023-02-23T01:21:18;99481.38;;;-14.24;57.69
76940;BME280;65885;55.848;35.916;2023-02-23T01:23:46;99478.41;;;-14.17;57.39
76940;BME280;65885;55.848;35.916;2023-02-23T01:26:15;99485.53;;;-14.10;57.11
76940;BME280;65885;55.848;35.916;2023-02-23T01:28:46;99485.09;;;-14.03;57.14
76940;BME280;65885;55.848;35.916;2023-02-23T01:31:14;99486.19;;;-13.98;57.22
76940;BME280;65885;55.848;35.916;2023-02-23T01:33:41;99490.63;;;-13.94;57.17
76940;BME280;65885;55.848;35.916;2023-02-23T01:36:09;99490.78;;;-13.91;57.12
76940;BME280;65885;55.848;35.916;2023-02-23T01:38:38;99500.78;;;-13.92;57.27
76940;BME280;65885;55.848;35.916;2023-02-23T01:41:06;99496.19;;;-14.00;57.19
76940;BME280;65885;55.848;35.916;2023-02-23T01:43:34;99499.06;;;-14.08;57.06
76940;BME280;65885;55.848;35.916;2023-02-23T01:46:02;99506.03;;;-14.19;57.12
76940;BME280;65885;55.848;35.916;2023-02-23T01:48:32;99502.81;;;-14.31;57.41
76940;BME280;65885;55.848;35.916;2023-02-23T01:51:05;99503.06;;;-14.41;57.22
76940;BME280;65885;55.848;35.916;2023-02-23T01:53:36;99510.13;;;-14.50;57.60
76940;BME280;65885;55.848;35.916;2023-02-23T01:56:12;99506.63;;;-14.52;57.89
76940;BME280;65885;55.848;35.916;2023-02-23T01:58:44;99506.03;;;-14.48;57.77
76940;BME280;65885;55.848;35.916;2023-02-23T02:01:13;99512.28;;;-14.42;57.76
76940;BME280;65885;55.848;35.916;2023-02-23T02:03:43;99512.72;;;-14.34;57.52
76940;BME280;65885;55.848;35.916;2023-02-23T02:06:15;99519.72;;;-14.29;57.08
76940;BME280;65885;55.848;35.916;2023-02-23T02:08:46;99513.31;;;-14.23;56.41
76940;BME280;65885;55.848;35.916;2023-02-23T02:11:18;99521.16;;;-14.19;56.44
76940;BME280;65885;55.848;35.916;2023-02-23T02:13:58;99523.91;;;-14.14;56.42
76940;BME280;65885;55.848;35.916;2023-02-23T02:16:52;99526.69;;;-14.10;56.45
76940;BME280;65885;55.848;35.916;2023-02-23T02:25:55;99517.56;;;-14.08;55.74
76940;BME280;65885;55.848;35.916;2023-02-23T02:31:55;99528.91;;;-14.44;55.47
76940;BME280;65885;55.848;35.916;2023-02-23T02:35:02;99519.97;;;-14.68;55.32
76940;BME280;65885;55.848;35.916;2023-02-23T02:38:02;99522.88;;;-14.90;55.68
76940;BME280;65885;55.848;35.916;2023-02-23T02:40:37;99530.88;;;-15.10;55.72
76940;BME280;65885;55.848;35.916;2023-02-23T02:43:23;99523.06;;;-15.28;55.50
76940;BME280;65885;55.848;35.916;2023-02-23T02:45:54;99529.38;;;-15.35;55.69
76940;BME280;65885;55.848;35.916;2023-02-23T02:48:35;99538.47;;;-15.37;56.18
76940;BME280;65885;55.848;35.916;2023-02-23T02:51:07;99533.53;;;-15.35;55.85
76940;BME280;65885;55.848;35.916;2023-02-23T02:53:48;99537.69;;;-15.36;55.94
76940;BME280;65885;55.848;35.916;2023-02-23T02:56:19;99547.94;;;-15.33;55.61
76940;BME280;65885;55.848;35.916;2023-02-23T02:58:47;99541.38;;;-15.31;56.12
76940;BME280;65885;55.848;35.916;2023-02-23T03:01:17;99541.53;;;-15.28;56.39
76940;BME280;65885;55.848;35.916;2023-02-23T03:04:16;99545.22;;;-15.23;57.06
76940;BME280;65885;55.848;35.916;2023-02-23T03:07:07;99543.06;;;-15.17;56.75
76940;BME280;65885;55.848;35.916;2023-02-23T03:09:58;99546.72;;;-15.12;56.09
76940;BME280;65885;55.848;35.916;2023-02-23T03:12:53;99548.75;;;-15.06;56.14
76940;BME280;65885;55.848;35.916;2023-02-23T03:15:42;99551.34;;;-15.04;56.15
76940;BME280;65885;55.848;35.916;2023-02-23T03:18:46;99559.19;;;-15.13;55.73
76940;BME280;65885;55.848;35.916;2023-02-23T03:21:40;99560.69;;;-15.30;56.08
76940;BME280;65885;55.848;35.916;2023-02-23T03:24:33;99562.25;;;-15.45;56.37
76940;BME280;65885;55.848;35.916;2023-02-23T03:27:25;99568.84;;;-15.60;56.43
76940;BME280;65885;55.848;35.916;2023-02-23T03:30:18;99567.91;;;-15.76;57.23
76940;BME280;65885;55.848;35.916;2023-02-23T03:33:09;99568.28;;;-15.83;57.72
76940;BME280;65885;55.848;35.916;2023-02-23T03:35:58;99576.13;;;-15.78;57.97
76940;BME280;65885;55.848;35.916;2023-02-23T03:38:49;99571.00;;;-15.66;57.68
76940;BME280;65885;55.848;35.916;2023-02-23T03:41:39;99576.94;;;-15.51;57.58
76940;BME280;65885;55.848;35.916;2023-02-23T03:44:30;99568.53;;;-15.38;57.95
76940;BME280;65885;55.848;35.916;2023-02-23T03:47:16;99569.19;;;-15.28;57.87
76940;BME280;65885;55.848;35.916;2023-02-23T03:50:06;99569.75;;;-15.19;57.33
76940;BME280;65885;55.848;35.916;2023-02-23T03:52:56;99573.72;;;-15.09;57.27
76940;BME280;65885;55.848;35.916;2023-02-23T03:55:46;99580.88;;;-15.02;57.30
76940;BME280;65885;55.848;35.916;2023-02-23T03:58:36;99571.19;;;-14.96;56.85
76940;BME280;65885;55.848;35.916;2023-02-23T04:01:25;99578.97;;;-14.91;56.85
76940;BME280;65885;55.848;35.916;2023-02-23T04:04:11;99589.75;;;-14.94;57.00
76940;BME280;65885;55.848;35.916;2023-02-23T04:06:57;99587.53;;;-15.02;56.43
76940;BME280;65885;55.848;35.916;2023-02-23T04:09:43;99585.22;;;-15.13;56.46
76940;BME280;65885;55.848;35.916;2023-02-23T04:12:33;99588.72;;;-15.24;56.74
76940;BME280;65885;55.848;35.916;2023-02-23T04:15:24;99589.59;;;-15.36;56.98
76940;BME280;65885;55.848;35.916;2023-02-23T04:17:53;99591.53;;;-15.46;57.15
76940;BME280;65885;55.848;35.916;2023-02-23T04:20:21;99587.00;;;-15.51;56.94
76940;BME280;65885;55.848;35.916;2023-02-23T04:22:49;99586.22;;;-15.50;57.45
76940;BME280;65885;55.848;35.916;2023-02-23T04:25:17;99586.53;;;-15.46;57.07
76940;BME280;65885;55.848;35.916;2023-02-23T04:27:47;99583.53;;;-15.40;56.76
76940;BME280;65885;55.848;35.916;2023-02-23T04:30:15;99583.00;;;-15.34;56.53
76940;BME280;65885;55.848;35.916;2023-02-23T04:32:42;99583.31;;;-15.30;55.94
76940;BME280;65885;55.848;35.916;2023-02-23T04:35:12;99585.91;;;-15.28;55.55
76940;BME280;65885;55.848;35.916;2023-02-23T04:37:40;99584.34;;;-15.26;55.49
76940;BME280;65885;55.848;35.916;2023-02-23T04:40:10;99589.50;;;-15.25;54.88
76940;BME280;65885;55.848;35.916;2023-02-23T04:42:39;99591.91;;;-15.26;55.13
76940;BME280;65885;55.848;35.916;2023-02-23T04:45:08;99584.34;;;-15.26;54.58
76940;BME280;65885;55.848;35.916;2023-02-23T04:47:36;99595.97;;;-15.28;54.34
76940;BME280;65885;55.848;35.916;2023-02-23T04:50:05;99599.09;;;-15.32;53.89
76940;BME280;65885;55.848;35.916;2023-02-23T04:52:34;99612.91;;;-15.39;53.67
76940;BME280;65885;55.848;35.916;2023-02-23T04:55:02;99609.63;;;-15.51;53.49
76940;BME280;65885;55.848;35.916;2023-02-23T04:57:30;99617.84;;;-15.67;53.88
76940;BME280;65885;55.848;35.916;2023-02-23T04:59:57;99617.56;;;-15.85;54.19
76940;BME280;65885;55.848;35.916;2023-02-23T05:02:25;99611.72;;;-15.97;54.88
76940;BME280;65885;55.848;35.916;2023-02-23T05:04:52;99610.81;;;-16.11;55.21
76940;BME280;65885;55.848;35.916;2023-02-23T05:07:21;99616.88;;;-16.20;55.61
76940;BME280;65885;55.848;35.916;2023-02-23T05:09:50;99618.78;;;-16.30;55.99
76940;BME280;65885;55.848;35.916;2023-02-23T05:12:17;99619.56;;;-16.31;55.77
76940;BME280;65885;55.848;35.916;2023-02-23T05:14:45;99623.03;;;-16.29;55.72
76940;BME280;65885;55.848;35.916;2023-02-23T05:17:12;99617.66;;;-16.21;55.39
76940;BME280;65885;55.848;35.916;2023-02-23T05:19:40;99614.78;;;-16.14;55.88
76940;BME280;65885;55.848;35.916;2023-02-23T05:22:08;99618.47;;;-16.09;55.34
76940;BME280;65885;55.848;35.916;2023-02-23T05:24:37;99622.13;;;-16.04;54.86
76940;BME280;65885;55.848;35.916;2023-02-23T05:27:06;99631.63;;;-16.00;54.89
76940;BME280;65885;55.848;35.916;2023-02-23T05:29:34;99628.44;;;-15.98;54.54
76940;BME280;65885;55.848;35.916;2023-02-23T05:32:02;99631.81;;;-15.97;53.96
76940;BME280;65885;55.848;35.916;2023-02-23T05:34:29;99628.53;;;-15.96;54.12
76940;BME280;65885;55.848;35.916;2023-02-23T05:36:57;99631.03;;;-15.96;53.85
76940;BME280;65885;55.848;35.916;2023-02-23T05:39:24;99639.44;;;-15.95;53.57
76940;BME280;65885;55.848;35.916;2023-02-23T05:41:52;99638.56;;;-15.96;54.05
76940;BME280;65885;55.848;35.916;2023-02-23T05:44:21;99637.91;;;-15.93;53.69
76940;BME280;65885;55.848;35.916;2023-02-23T05:46:48;99628.53;;;-15.96;53.85
76940;BME280;65885;55.848;35.916;2023-02-23T05:49:16;99639.81;;;-16.03;53.85
76940;BME280;65885;55.848;35.916;2023-02-23T05:51:44;99642.38;;;-16.14;53.70
76940;BME280;65885;55.848;35.916;2023-02-23T05:54:11;99646.59;;;-16.27;53.73
76940;BME280;65885;55.848;35.916;2023-02-23T05:56:40;99641.63;;;-16.38;54.50
76940;BME280;65885;55.848;35.916;2023-02-23T05:59:07;99634.13;;;-16.50;54.79
76940;BME280;65885;55.848;35.916;2023-02-23T06:01:36;99644.44;;;-16.59;54.85
76940;BME280;65885;55.848;35.916;2023-02-23T06:04:04;99634.84;;;-16.64;54.87
76940;BME280;65885;55.848;35.916;2023-02-23T06:06:32;99640.19;;;-16.60;55.42
76940;BME280;65885;55.848;35.916;2023-02-23T06:09:00;99645.72;;;-16.52;55.99
76940;BME280;65885;55.848;35.916;2023-02-23T06:11:28;99643.28;;;-16.39;55.46
76940;BME280;65885;55.848;35.916;2023-02-23T06:13:57;99643.31;;;-16.26;55.89
76940;BME280;65885;55.848;35.916;2023-02-23T06:16:25;99642.59;;;-16.11;55.76
76940;BME280;65885;55.848;35.916;2023-02-23T06:18:54;99649.47;;;-15.95;56.15
76940;BME280;65885;55.848;35.916;2023-02-23T06:21:23;99651.47;;;-15.78;56.19
76940;BME280;65885;55.848;35.916;2023-02-23T06:23:50;99645.00;;;-15.61;56.97
76940;BME280;65885;55.848;35.916;2023-02-23T06:26:19;99640.34;;;-15.42;56.86
76940;BME280;65885;55.848;35.916;2023-02-23T06:28:46;99650.78;;;-15.23;57.19
76940;BME280;65885;55.848;35.916;2023-02-23T06:31:14;99644.59;;;-15.01;57.40
76940;BME280;65885;55.848;35.916;2023-02-23T06:33:41;99652.41;;;-14.83;57.42
76940;BME280;65885;55.848;35.916;2023-02-23T06:36:10;99648.03;;;-14.73;57.63
76940;BME280;65885;55.848;35.916;2023-02-23T06:38:38;99655.06;;;-14.67;57.65
76940;BME280;65885;55.848;35.916;2023-02-23T06:41:08;99649.47;;;-14.63;57.49
76940;BME280;65885;55.848;35.916;2023-02-23T06:43:36;99651.97;;;-14.63;57.86
76940;BME280;65885;55.848;35.916;2023-02-23T06:46:04;99657.88;;;-14.63;58.23
76940;BME280;65885;55.848;35.916;2023-02-23T06:48:32;99657.19;;;-14.60;58.50
76940;BME280;65885;55.848;35.916;2023-02-23T06:51:00;99661.03;;;-14.52;58.48
76940;BME280;65885;55.848;35.916;2023-02-23T06:53:29;99659.41;;;-14.37;58.83
76940;BME280;65885;55.848;35.916;2023-02-23T06:55:56;99656.59;;;-14.13;59.00
76940;BME280;65885;55.848;35.916;2023-02-23T06:58:24;99655.41;;;-13.90;59.15
76940;BME280;65885;55.848;35.916;2023-02-23T07:00:54;99661.97;;;-13.64;59.41
76940;BME280;65885;55.848;35.916;2023-02-23T07:03:23;99659.97;;;-13.40;59.35
76940;BME280;65885;55.848;35.916;2023-02-23T07:05:51;99656.09;;;-13.19;59.13
76940;BME280;65885;55.848;35.916;2023-02-23T07:08:19;99667.28;;;-12.99;59.17
76940;BME280;65885;55.848;35.916;2023-02-23T07:10:48;99664.97;;;-12.80;58.98
76940;BME280;65885;55.848;35.916;2023-02-23T07:13:15;99656.63;;;-12.63;59.06
76940;BME280;65885;55.848;35.916;2023-02-23T07:15:45;99661.81;;;-12.45;58.94
76940;BME280;65885;55.848;35.916;2023-02-23T07:18:12;99659.75;;;-12.36;58.74
76940;BME280;65885;55.848;35.916;2023-02-23T07:20:41;99667.66;;;-12.29;58.75
76940;BME280;65885;55.848;35.916;2023-02-23T07:23:12;99666.94;;;-12.27;58.85
76940;BME280;65885;55.848;35.916;2023-02-23T07:25:39;99661.09;;;-12.26;59.04
76940;BME280;65885;55.848;35.916;2023-02-23T07:28:08;99659.53;;;-12.24;59.02
76940;BME280;65885;55.848;35.916;2023-02-23T07:30:38;99645.31;;;-12.22;59.38
76940;BME280;65885;55.848;35.916;2023-02-23T07:33:06;99651.38;;;-12.18;59.57
76940;BME280;65885;55.848;35.916;2023-02-23T07:35:33;99649.97;;;-12.13;59.84
76940;BME280;65885;55.848;35.916;2023-02-23T07:38:00;99652.75;;;-12.09;60.02
76940;BME280;65885;55.848;35.916;2023-02-23T07:40:29;99660.59;;;-12.02;60.41
76940;BME280;65885;55.848;35.916;2023-02-23T07:42:56;99658.00;;;-11.88;60.79
76940;BME280;65885;55.848;35.916;2023-02-23T07:45:25;99656.50;;;-11.66;60.99
76940;BME280;65885;55.848;35.916;2023-02-23T07:47:53;99661.19;;;-11.40;61.00
76940;BME280;65885;55.848;35.916;2023-02-23T07:50:21;99656.66;;;-11.11;61.15
76940;BME280;65885;55.848;35.916;2023-02-23T07:52:50;99657.16;;;-10.83;61.19
76940;BME280;65885;55.848;35.916;2023-02-23T07:55:17;99660.16;;;-10.54;61.07
76940;BME280;65885;55.848;35.916;2023-02-23T07:57:45;99650.78;;;-10.38;61.05
76940;BME280;65885;55.848;35.916;2023-02-23T08:00:13;99648.03;;;-10.23;60.90
76940;BME280;65885;55.848;35.916;2023-02-23T08:02:43;99651.03;;;-10.12;60.84
76940;BME280;65885;55.848;35.916;2023-02-23T08:05:10;99664.06;;;-10.04;60.82
76940;BME280;65885;55.848;35.916;2023-02-23T08:07:38;99648.34;;;-9.96;61.06
76940;BME280;65885;55.848;35.916;2023-02-23T08:10:06;99652.75;;;-9.92;61.04
76940;BME280;65885;55.848;35.916;2023-02-23T08:12:34;99648.81;;;-9.85;61.11
76940;BME280;65885;55.848;35.916;2023-02-23T08:15:02;99657.59;;;-9.77;61.34
76940;BME280;65885;55.848;35.916;2023-02-23T08:17:30;99654.53;;;-9.70;61.59
76940;BME280;65885;55.848;35.916;2023-02-23T08:20:02;99655.72;;;-9.62;61.49
76940;BME280;65885;55.848;35.916;2023-02-23T08:22:30;99664.56;;;-9.52;61.24
76940;BME280;65885;55.848;35.916;2023-02-23T08:24:58;99670.91;;;-9.42;61.07
76940;BME280;65885;55.848;35.916;2023-02-23T08:27:26;99667.81;;;-9.35;61.13
76940;BME280;65885;55.848;35.916;2023-02-23T08:29:55;99672.47;;;-9.25;61.23
76940;BME280;65885;55.848;35.916;2023-02-23T08:32:22;99668.56;;;-9.17;61.11
76940;BME280;65885;55.848;35.916;2023-02-23T08:34:50;99679.31;;;-9.02;61.26
76940;BME280;65885;55.848;35.916;2023-02-23T08:37:19;99689.28;;;-8.85;61.44
76940;BME280;65885;55.848;35.916;2023-02-23T08:39:46;99674.63;;;-8.70;61.44
76940;BME280;65885;55.848;35.916;2023-02-23T08:42:14;99675.22;;;-8.55;61.39
76940;BME280;65885;55.848;35.916;2023-02-23T08:44:42;99673.25;;;-8.40;60.96
76940;BME280;65885;55.848;35.916;2023-02-23T08:47:10;99668.94;;;-8.18;60.96
76940;BME280;65885;55.848;35.916;2023-02-23T08:49:37;99666.34;;;-7.96;61.56
76940;BME280;65885;55.848;35.916;2023-02-23T08:52:06;99669.88;;;-7.68;61.30
76940;BME280;65885;55.848;35.916;2023-02-23T08:54:35;99661.41;;;-7.42;61.09
76940;BME280;65885;55.848;35.916;2023-02-23T08:57:02;99657.28;;;-7.13;61.45
76940;BME280;65885;55.848;35.916;2023-02-23T08:59:29;99665.22;;;-6.77;61.94
76940;BME280;65885;55.848;35.916;2023-02-23T09:01:57;99648.38;;;-6.43;61.65
76940;BME280;65885;55.848;35.916;2023-02-23T09:04:24;99660.69;;;-6.00;61.50
76940;BME280;65885;55.848;35.916;2023-02-23T09:06:52;99657.47;;;-5.61;60.24
76940;BME280;65885;55.848;35.916;2023-02-23T09:09:19;99658.63;;;-5.15;58.92
76940;BME280;65885;55.848;35.916;2023-02-23T09:11:48;99654.75;;;-4.63;59.35
76940;BME280;65885;55.848;35.916;2023-02-23T09:14:16;99654.25;;;-4.08;59.02
76940;BME280;65885;55.848;35.916;2023-02-23T09:16:44;99657.78;;;-3.56;57.46
76940;BME280;65885;55.848;35.916;2023-02-23T09:19:12;99646.63;;;-3.11;56.72
76940;BME280;65885;55.848;35.916;2023-02-23T09:21:39;99650.75;;;-2.66;55.86
76940;BME280;65885;55.848;35.916;2023-02-23T09:24:07;99649.78;;;-2.12;56.25
76940;BME280;65885;55.848;35.916;2023-02-23T09:26:35;99652.19;;;-1.52;55.37
76940;BME280;65885;55.848;35.916;2023-02-23T09:29:07;99637.28;;;-0.92;54.58
76940;BME280;65885;55.848;35.916;2023-02-23T09:31:34;99636.81;;;-0.35;54.30
76940;BME280;65885;55.848;35.916;2023-02-23T09:34:02;99632.72;;;0.13;52.33
76940;BME280;65885;55.848;35.916;2023-02-23T09:36:29;99637.16;;;0.46;52.00
76940;BME280;65885;55.848;35.916;2023-02-23T09:38:57;99629.47;;;0.85;52.19
76940;BME280;65885;55.848;35.916;2023-02-23T09:41:58;99629.44;;;1.23;51.24
76940;BME280;65885;55.848;35.916;2023-02-23T09:44:36;99625.06;;;1.63;50.80
76940;BME280;65885;55.848;35.916;2023-02-23T09:47:18;99614.59;;;2.00;48.77
76940;BME280;65885;55.848;35.916;2023-02-23T09:49:49;99617.88;;;2.38;50.21
76940;BME280;65885;55.848;35.916;2023-02-23T09:52:20;99614.16;;;2.77;49.20
76940;BME280;65885;55.848;35.916;2023-02-23T09:54:48;99612.25;;;3.02;48.65
76940;BME280;65885;55.848;35.916;2023-02-23T09:57:20;99603.38;;;3.28;47.94
76940;BME280;65885;55.848;35.916;2023-02-23T09:59:51;99603.19;;;3.48;47.19
76940;BME280;65885;55.848;35.916;2023-02-23T10:02:22;99600.34;;;3.72;49.77
76940;BME280;65885;55.848;35.916;2023-02-23T10:04:55;99595.91;;;3.80;46.54
76940;BME280;65885;55.848;35.916;2023-02-23T10:07:31;99598.41;;;3.89;47.03
76940;BME280;65885;55.848;35.916;2023-02-23T10:10:16;99600.72;;;4.11;45.85
76940;BME280;65885;55.848;35.916;2023-02-23T10:12:52;99595.28;;;4.29;47.60
76940;BME280;65885;55.848;35.916;2023-02-23T10:15:32;99594.16;;;4.49;46.67
76940;BME280;65885;55.848;35.916;2023-02-23T10:18:12;99593.03;;;4.65;45.65
76940;BME280;65885;55.848;35.916;2023-02-23T10:20:46;99597.16;;;4.80;45.09
76940;BME280;65885;55.848;35.916;2023-02-23T10:23:22;99589.41;;;4.75;44.20
76940;BME280;65885;55.848;35.916;2023-02-23T10:25:56;99588.44;;;4.84;46.09
76940;BME280;65885;55.848;35.916;2023-02-23T10:28:27;99590.69;;;5.04;47.38
76940;BME280;65885;55.848;35.916;2023-02-23T10:31:01;99588.81;;;5.12;46.04
76940;BME280;65885;55.848;35.916;2023-02-23T10:33:35;99585.38;;;5.11;46.05
76940;BME280;65885;55.848;35.916;2023-02-23T10:36:11;99587.69;;;5.26;47.88
76940;BME280;65885;55.848;35.916;2023-02-23T10:38:41;99592.63;;;5.42;48.30
76940;BME280;65885;55.848;35.916;2023-02-23T10:41:09;99585.50;;;5.51;46.86
76940;BME280;65885;55.848;35.916;2023-02-23T10:43:37;99581.00;;;5.61;46.03
76940;BME280;65885;55.848;35.916;2023-02-23T10:46:11;99591.84;;;5.81;50.07
76940;BME280;65885;55.848;35.916;2023-02-23T10:48:44;99597.00;;;5.86;47.50
76940;BME280;65885;55.848;35.916;2023-02-23T10:51:17;99590.84;;;5.90;46.95
76940;BME280;65885;55.848;35.916;2023-02-23T10:53:46;99599.53;;;5.91;47.40
76940;BME280;65885;55.848;35.916;2023-02-23T10:56:16;99597.81;;;5.91;48.89
76940;BME280;65885;55.848;35.916;2023-02-23T10:58:45;99598.66;;;5.90;48.68
76940;BME280;65885;55.848;35.916;2023-02-23T11:01:23;99599.47;;;5.94;51.04
76940;BME280;65885;55.848;35.916;2023-02-23T11:04:12;99597.72;;;5.94;48.60
76940;BME280;65885;55.848;35.916;2023-02-23T11:06:43;99590.84;;;5.89;48.09
76940;BME280;65885;55.848;35.916;2023-02-23T11:09:22;99585.91;;;5.76;47.33
76940;BME280;65885;55.848;35.916;2023-02-23T11:11:58;99587.00;;;5.65;47.33
76940;BME280;65885;55.848;35.916;2023-02-23T11:14:30;99584.66;;;5.52;46.84
76940;BME280;65885;55.848;35.916;2023-02-23T11:16:59;99590.00;;;5.45;48.69
76940;BME280;65885;55.848;35.916;2023-02-23T11:19:32;99590.84;;;5.44;48.04
76940;BME280;65885;55.848;35.916;2023-02-23T11:22:02;99591.84;;;5.38;46.05
76940;BME280;65885;55.848;35.916;2023-02-23T11:24:33;99585.03;;;5.31;48.66
76940;BME280;65885;55.848;35.916;2023-02-23T11:27:03;99579.03;;;5.26;47.15
76940;BME280;65885;55.848;35.916;2023-02-23T11:29:33;99570.53;;;5.18;47.73
76940;BME280;65885;55.848;35.916;2023-02-23T11:32:07;99574.13;;;5.11;47.73
76940;BME280;65885;55.848;35.916;2023-02-23T11:34:38;99585.47;;;5.05;46.76
76940;BME280;65885;55.848;35.916;2023-02-23T11:37:19;99578.72;;;4.95;45.70
76940;BME280;65885;55.848;35.916;2023-02-23T11:39:52;99578.84;;;4.87;45.38
76940;BME280;65885;55.848;35.916;2023-02-23T11:42:21;99572.78;;;4.87;47.89
76940;BME280;65885;55.848;35.916;2023-02-23T11:44:51;99585.72;;;4.90;49.14
76940;BME280;65885;55.848;35.916;2023-02-23T11:47:31;99578.78;;;4.92;48.77
76940;BME280;65885;55.848;35.916;2023-02-23T11:50:02;99572.69;;;4.93;47.18
76940;BME280;65885;55.848;35.916;2023-02-23T11:52:30;99577.84;;;4.94;48.38
76940;BME280;65885;55.848;35.916;2023-02-23T11:54:59;99572.66;;;4.94;47.99
76940;BME280;65885;55.848;35.916;2023-02-23T11:57:31;99562.19;;;4.97;49.02
76940;BME280;65885;55.848;35.916;2023-02-23T12:00:07;99561.25;;;5.03;49.03
76940;BME280;65885;55.848;35.916;2023-02-23T12:02:46;99555.13;;;5.06;47.59
76940;BME280;65885;55.848;35.916;2023-02-23T12:05:17;99559.59;;;4.97;46.22
76940;BME280;65885;55.848;35.916;2023-02-23T12:07:52;99549.41;;;4.87;46.22
76940;BME280;65885;55.848;35.916;2023-02-23T12:10:24;99546.88;;;4.82;46.77
76940;BME280;65885;55.848;35.916;2023-02-23T12:13:03;99548.63;;;4.80;48.44
76940;BME280;65885;55.848;35.916;2023-02-23T12:15:39;99547.81;;;4.78;47.31
76940;BME280;65885;55.848;35.916;2023-02-23T12:18:19;99552.97;;;4.80;48.63
76940;BME280;65885;55.848;35.916;2023-02-23T12:20:49;99546.03;;;4.80;49.16
76940;BME280;65885;55.848;35.916;2023-02-23T12:23:19;99553.84;;;4.80;48.41
76940;BME280;65885;55.848;35.916;2023-02-23T12:25:52;99555.63;;;4.78;48.40
76940;BME280;65885;55.848;35.916;2023-02-23T12:28:25;99550.50;;;4.72;48.17
76940;BME280;65885;55.848;35.916;2023-02-23T12:30:59;99559.28;;;4.65;47.01
76940;BME280;65885;55.848;35.916;2023-02-23T12:33:33;99555.91;;;4.58;47.13
76940;BME280;65885;55.848;35.916;2023-02-23T12:36:11;99562.06;;;4.53;47.90
76940;BME280;65885;55.848;35.916;2023-02-23T12:38:50;99551.75;;;4.48;47.31
76940;BME280;65885;55.848;35.916;2023-02-23T12:41:31;99551.81;;;4.43;48.52
76940;BME280;65885;55.848;35.916;2023-02-23T12:44:10;99545.91;;;4.34;47.41
76940;BME280;65885;55.848;35.916;2023-02-23T12:46:44;99549.50;;;4.25;46.18
76940;BME280;65885;55.848;35.916;2023-02-23T12:49:23;99553.16;;;4.10;45.51
76940;BME280;65885;55.848;35.916;2023-02-23T12:52:01;99561.09;;;3.98;45.52
76940;BME280;65885;55.848;35.916;2023-02-23T12:54:33;99556.03;;;3.89;45.86
76940;BME280;65885;55.848;35.916;2023-02-23T12:57:11;99554.38;;;3.82;46.44
76940;BME280;65885;55.848;35.916;2023-02-23T13:00:00;99557.97;;;3.72;46.98
76940;BME280;65885;55.848;35.916;2023-02-23T13:02:49;99552.03;;;3.62;46.44
76940;BME280;65885;55.848;35.916;2023-02-23T13:05:35;99553.84;;;3.54;45.92
76940;BME280;65885;55.848;35.916;2023-02-23T13:08:12;99547.00;;;3.47;46.18
76940;BME280;65885;55.848;35.916;2023-02-23T13:10:50;99543.63;;;3.42;46.67
76940;BME280;65885;55.848;35.916;2023-02-23T13:13:27;99544.56;;;3.36;47.15
76940;BME280;65885;55.848;35.916;2023-02-23T13:16:02;99536.84;;;3.28;47.80
76940;BME280;65885;55.848;35.916;2023-02-23T13:18:36;99536.00;;;3.25;47.90
76940;BME280;65885;55.848;35.916;2023-02-23T13:21:14;99535.16;;;3.24;47.84
76940;BME280;65885;55.848;35.916;2023-02-23T13:23:54;99540.38;;;3.21;47.78
76940;BME280;65885;55.848;35.916;2023-02-23T13:26:38;99543.84;;;3.20;48.56